Airfield :
LOGIN :

Register | Disclaimer

   EN    FR    IT 

 










Legend :    VFR   Marginal VFR   IFR   Intensive IFR   Very Intensive IFR
Visi :
Ceiling :
>= 8 km
>= 3000ft
5 to 8 km
1000 to 3000 ft
1500m to 5 km
500 to 1000 ft
800 to 1500m
200 to 500 ft
< 800m
< 200 ft
Symbols :   Thunderstorms  Fog  Heavy snow  Heavy precipitations  Wind > 20 kt
SIGMETs :     Misc.  Thunderstorms  Icing  Turbulence  Mountain Waves  Volcanic Ashes






- Airport Elevation : 90 ft
- IATA code : NTE


LFRS - Nantes

CURRENT METAR :
  • 142230Z AUTO 35006KT 310V040 9999 BKN024 OVC030 17/13 Q1018 NOSIG

EXPIRED METARs :
  • 142200Z AUTO 35006KT 310V040 9999 OVC026 17/13 Q1018 NOSIG
  • 142130Z AUTO 36007KT 330V040 9999 OVC029 18/14 Q1018 NOSIG
  • 142100Z AUTO 36007KT 330V030 9999 FEW024 OVC032 18/14 Q1018 NOSIG
  • 142030Z AUTO 01005KT 320V040 9999 FEW017 OVC029 18/15 Q1018 NOSIG
  • 142000Z AUTO 02004KT 340V050 9999 -RA SCT021 BKN027 OVC033 18/16 Q1018 NOSIG

TAF TAF LFRS
Valid from the 14 at 18:00 until the 16 at 00:00 UTC


141700Z 1418/1524 29010KT CAVOK
BECMG 1419/1421 36009KT
BECMG 1508/1510 30008KT
TEMPO 1515/1521 BKN030
ATIS : +33 2 40 05 12 74



MET'MAP, your aeronautical weather chart ! - Copyright ORBIFLY December 2007 - Disclaimer

ORBIFLY MET'MAP TEAM :

Programming & Development : Alexandra Zaïnal
Concept & original design : Baudouin d'Aumeries
Assistance for programming : Marc-Olivier Méhu
Technical & hardware support : Manuel Goepfert

Contact : metmap@orbifly.com




SOURCES & CREDITS :

   NOAA